sensor_id;sensor_type;location;lat;lon;timestamp;pressure;altitude;pressure_sealevel;temperature;humidity
71764;BME280;59602;52.142;5.408;2024-03-02T00:00:26;99897.22;;;8.92;87.35
71764;BME280;59602;52.142;5.408;2024-03-02T00:02:53;99885.59;;;8.91;86.70
71764;BME280;59602;52.142;5.408;2024-03-02T00:05:22;99878.25;;;8.92;86.70
71764;BME280;59602;52.142;5.408;2024-03-02T00:07:57;99877.84;;;8.90;88.24
71764;BME280;59602;52.142;5.408;2024-03-02T00:10:27;99888.69;;;8.90;88.01
71764;BME280;59602;52.142;5.408;2024-03-02T00:12:58;99883.66;;;8.92;88.06
71764;BME280;59602;52.142;5.408;2024-03-02T00:15:42;99888.28;;;8.95;87.34
71764;BME280;59602;52.142;5.408;2024-03-02T00:18:13;99899.13;;;8.95;88.26
71764;BME280;59602;52.142;5.408;2024-03-02T00:20:41;99911.53;;;8.96;88.13
71764;BME280;59602;52.142;5.408;2024-03-02T00:23:10;99907.28;;;8.99;86.75
71764;BME280;59602;52.142;5.408;2024-03-02T00:25:42;99921.22;;;9.01;86.93
71764;BME280;59602;52.142;5.408;2024-03-02T00:30:47;99932.03;;;9.08;86.06
71764;BME280;59602;52.142;5.408;2024-03-02T00:33:17;99928.56;;;9.11;85.52
71764;BME280;59602;52.142;5.408;2024-03-02T00:35:44;99957.97;;;9.12;85.22
71764;BME280;59602;52.142;5.408;2024-03-02T00:38:12;99972.31;;;9.13;86.74
71764;BME280;59602;52.142;5.408;2024-03-02T00:40:42;99965.34;;;9.12;85.59
71764;BME280;59602;52.142;5.408;2024-03-02T00:46:02;99995.56;;;9.10;86.99
71764;BME280;59602;52.142;5.408;2024-03-02T00:48:29;100000.59;;;9.08;87.14
71764;BME280;59602;52.142;5.408;2024-03-02T00:50:59;99992.06;;;9.10;88.50
71764;BME280;59602;52.142;5.408;2024-03-02T00:53:27;99992.88;;;9.07;89.24
71764;BME280;59602;52.142;5.408;2024-03-02T00:55:55;100005.28;;;9.04;91.03
71764;BME280;59602;52.142;5.408;2024-03-02T00:58:23;100001.00;;;9.00;89.22
71764;BME280;59602;52.142;5.408;2024-03-02T01:00:51;99985.53;;;9.00;90.54
71764;BME280;59602;52.142;5.408;2024-03-02T01:03:19;99996.34;;;8.97;90.82
71764;BME280;59602;52.142;5.408;2024-03-02T01:05:47;100006.03;;;8.94;91.90
71764;BME280;59602;52.142;5.408;2024-03-02T01:08:14;100005.25;;;8.90;91.76
71764;BME280;59602;52.142;5.408;2024-03-02T01:10:41;100001.00;;;8.85;92.38
71764;BME280;59602;52.142;5.408;2024-03-02T01:13:08;100009.94;;;8.82;92.96
71764;BME280;59602;52.142;5.408;2024-03-02T01:15:35;100017.66;;;8.80;92.63
71764;BME280;59602;52.142;5.408;2024-03-02T01:18:02;100002.94;;;8.81;93.78
71764;BME280;59602;52.142;5.408;2024-03-02T01:20:29;99998.69;;;8.77;93.88
71764;BME280;59602;52.142;5.408;2024-03-02T01:22:56;100002.19;;;8.73;95.02
71764;BME280;59602;52.142;5.408;2024-03-02T01:25:23;100004.09;;;8.66;96.12
71764;BME280;59602;52.142;5.408;2024-03-02T01:27:49;100002.19;;;8.63;96.79
71764;BME280;59602;52.142;5.408;2024-03-02T01:30:16;100015.34;;;8.61;95.70
71764;BME280;59602;52.142;5.408;2024-03-02T01:32:43;100010.69;;;8.58;96.75
71764;BME280;59602;52.142;5.408;2024-03-02T01:35:09;100008.75;;;8.58;96.76
71764;BME280;59602;52.142;5.408;2024-03-02T01:37:41;100010.69;;;8.58;96.77
71764;BME280;59602;52.142;5.408;2024-03-02T01:40:09;100013.00;;;8.52;96.24
71764;BME280;59602;52.142;5.408;2024-03-02T01:42:38;100018.03;;;8.54;97.56
71764;BME280;59602;52.142;5.408;2024-03-02T01:45:08;100015.34;;;8.54;97.58
71764;BME280;59602;52.142;5.408;2024-03-02T01:47:35;100016.09;;;8.54;98.10
71764;BME280;59602;52.142;5.408;2024-03-02T01:50:03;100016.47;;;8.52;97.85
71764;BME280;59602;52.142;5.408;2024-03-02T01:52:30;100014.94;;;8.51;97.41
71764;BME280;59602;52.142;5.408;2024-03-02T01:54:57;100021.13;;;8.48;97.61
71764;BME280;59602;52.142;5.408;2024-03-02T01:57:25;100022.69;;;8.49;97.95
71764;BME280;59602;52.142;5.408;2024-03-02T01:59:51;100011.44;;;8.47;97.67
71764;BME280;59602;52.142;5.408;2024-03-02T02:02:19;100014.13;;;8.44;98.46
71764;BME280;59602;52.142;5.408;2024-03-02T02:04:46;100015.69;;;8.41;98.13
71764;BME280;59602;52.142;5.408;2024-03-02T02:07:13;100011.84;;;8.42;98.73
71764;BME280;59602;52.142;5.408;2024-03-02T02:09:41;100009.50;;;8.41;98.61
71764;BME280;59602;52.142;5.408;2024-03-02T02:12:09;100014.88;;;8.37;98.86
71764;BME280;59602;52.142;5.408;2024-03-02T02:14:36;100026.50;;;8.30;98.89
71764;BME280;59602;52.142;5.408;2024-03-02T02:17:03;100026.09;;;8.28;99.52
71764;BME280;59602;52.142;5.408;2024-03-02T02:19:30;100026.50;;;8.30;99.81
71764;BME280;59602;52.142;5.408;2024-03-02T02:21:56;100021.84;;;8.24;100.00
71764;BME280;59602;52.142;5.408;2024-03-02T02:24:23;100029.56;;;8.25;100.00
71764;BME280;59602;52.142;5.408;2024-03-02T02:26:49;100033.03;;;8.26;100.00
71764;BME280;59602;52.142;5.408;2024-03-02T02:29:16;100010.22;;;8.23;100.00
71764;BME280;59602;52.142;5.408;2024-03-02T02:31:43;100010.22;;;8.20;100.00
71764;BME280;59602;52.142;5.408;2024-03-02T02:34:10;100008.66;;;8.19;100.00
71764;BME280;59602;52.142;5.408;2024-03-02T02:36:38;100012.13;;;8.16;100.00
71764;BME280;59602;52.142;5.408;2024-03-02T02:39:08;100023.75;;;8.16;100.00
71764;BME280;59602;52.142;5.408;2024-03-02T02:41:37;100035.34;;;8.13;100.00
71764;BME280;59602;52.142;5.408;2024-03-02T02:44:04;100042.69;;;8.16;100.00
71764;BME280;59602;52.142;5.408;2024-03-02T02:46:31;100032.63;;;8.17;100.00
71764;BME280;59602;52.142;5.408;2024-03-02T02:48:57;100026.41;;;8.13;100.00
71764;BME280;59602;52.142;5.408;2024-03-02T02:51:24;100023.72;;;8.09;100.00
71764;BME280;59602;52.142;5.408;2024-03-02T02:53:52;100040.38;;;8.11;100.00
71764;BME280;59602;52.142;5.408;2024-03-02T02:56:18;100026.41;;;8.05;100.00
71764;BME280;59602;52.142;5.408;2024-03-02T02:58:45;100039.56;;;8.07;100.00
71764;BME280;59602;52.142;5.408;2024-03-02T03:01:12;100043.78;;;8.01;100.00
71764;BME280;59602;52.142;5.408;2024-03-02T03:03:39;100032.94;;;7.94;100.00
71764;BME280;59602;52.142;5.408;2024-03-02T03:06:07;100032.56;;;7.95;100.00
71764;BME280;59602;52.142;5.408;2024-03-02T03:08:34;100034.88;;;7.93;100.00
71764;BME280;59602;52.142;5.408;2024-03-02T03:11:01;100025.19;;;7.92;100.00
71764;BME280;59602;52.142;5.408;2024-03-02T03:13:28;100031.41;;;7.96;100.00
71764;BME280;59602;52.142;5.408;2024-03-02T03:15:55;100028.31;;;7.94;100.00
71764;BME280;59602;52.142;5.408;2024-03-02T03:18:21;100026.38;;;7.91;100.00
71764;BME280;59602;52.142;5.408;2024-03-02T03:20:48;100025.19;;;7.88;100.00
71764;BME280;59602;52.142;5.408;2024-03-02T03:23:15;100027.91;;;7.88;100.00
71764;BME280;59602;52.142;5.408;2024-03-02T03:25:44;100045.31;;;7.91;100.00
71764;BME280;59602;52.142;5.408;2024-03-02T03:28:10;100042.22;;;7.89;100.00
71764;BME280;59602;52.142;5.408;2024-03-02T03:30:38;100043.72;;;7.83;100.00
71764;BME280;59602;52.142;5.408;2024-03-02T03:33:05;100044.50;;;7.83;100.00
71764;BME280;59602;52.142;5.408;2024-03-02T03:35:33;100050.28;;;7.78;100.00
71764;BME280;59602;52.142;5.408;2024-03-02T03:38:01;100047.53;;;7.75;100.00
71764;BME280;59602;52.142;5.408;2024-03-02T03:40:27;100043.28;;;7.74;100.00
71764;BME280;59602;52.142;5.408;2024-03-02T03:42:54;100056.06;;;7.73;100.00
71764;BME280;59602;52.142;5.408;2024-03-02T03:45:22;100050.25;;;7.71;100.00
71764;BME280;59602;52.142;5.408;2024-03-02T03:47:49;100045.97;;;7.70;100.00
71764;BME280;59602;52.142;5.408;2024-03-02T03:50:15;100054.09;;;7.70;100.00
71764;BME280;59602;52.142;5.408;2024-03-02T03:52:42;100051.03;;;7.68;100.00
71764;BME280;59602;52.142;5.408;2024-03-02T03:55:10;100068.81;;;7.73;100.00
71764;BME280;59602;52.142;5.408;2024-03-02T03:57:36;100059.50;;;7.70;100.00
71764;BME280;59602;52.142;5.408;2024-03-02T04:00:03;100060.69;;;7.69;100.00
71764;BME280;59602;52.142;5.408;2024-03-02T04:02:30;100057.19;;;7.68;100.00
71764;BME280;59602;52.142;5.408;2024-03-02T04:04:57;100055.25;;;7.69;100.00
71764;BME280;59602;52.142;5.408;2024-03-02T04:07:24;100054.13;;;7.74;100.00
71764;BME280;59602;52.142;5.408;2024-03-02T04:09:52;100063.00;;;7.74;100.00
71764;BME280;59602;52.142;5.408;2024-03-02T04:12:20;100064.91;;;7.70;100.00
71764;BME280;59602;52.142;5.408;2024-03-02T04:14:47;100067.63;;;7.70;100.00
71764;BME280;59602;52.142;5.408;2024-03-02T04:17:13;100069.19;;;7.75;100.00
71764;BME280;59602;52.142;5.408;2024-03-02T04:19:40;100073.47;;;7.76;100.00
71764;BME280;59602;52.142;5.408;2024-03-02T04:22:07;100078.88;;;7.76;100.00
71764;BME280;59602;52.142;5.408;2024-03-02T04:24:46;100078.47;;;7.74;100.00
71764;BME280;59602;52.142;5.408;2024-03-02T04:27:13;100074.59;;;7.75;100.00
71764;BME280;59602;52.142;5.408;2024-03-02T04:29:39;100069.22;;;7.78;100.00
71764;BME280;59602;52.142;5.408;2024-03-02T04:32:06;100082.38;;;7.80;100.00
71764;BME280;59602;52.142;5.408;2024-03-02T04:34:33;100075.41;;;7.79;100.00
71764;BME280;59602;52.142;5.408;2024-03-02T04:36:59;100084.31;;;7.83;100.00
71764;BME280;59602;52.142;5.408;2024-03-02T04:39:26;100084.31;;;7.83;100.00
71764;BME280;59602;52.142;5.408;2024-03-02T04:41:53;100084.72;;;7.85;100.00
71764;BME280;59602;52.142;5.408;2024-03-02T04:44:20;100088.19;;;7.85;100.00
71764;BME280;59602;52.142;5.408;2024-03-02T04:46:46;100097.88;;;7.86;100.00
71764;BME280;59602;52.142;5.408;2024-03-02T04:49:13;100090.50;;;7.83;100.00
71764;BME280;59602;52.142;5.408;2024-03-02T04:51:39;100095.91;;;7.80;100.00
71764;BME280;59602;52.142;5.408;2024-03-02T04:54:06;100102.47;;;7.79;100.00
71764;BME280;59602;52.142;5.408;2024-03-02T04:56:32;100102.88;;;7.81;100.00
71764;BME280;59602;52.142;5.408;2024-03-02T04:59:11;100102.09;;;7.80;100.00
71764;BME280;59602;52.142;5.408;2024-03-02T05:01:37;100116.38;;;7.77;100.00
71764;BME280;59602;52.142;5.408;2024-03-02T05:04:04;100106.34;;;7.78;100.00
71764;BME280;59602;52.142;5.408;2024-03-02T05:06:32;100104.75;;;7.77;100.00
71764;BME280;59602;52.142;5.408;2024-03-02T05:08:59;100108.28;;;7.77;100.00
71764;BME280;59602;52.142;5.408;2024-03-02T05:11:26;100108.25;;;7.74;99.93
71764;BME280;59602;52.142;5.408;2024-03-02T05:14:05;100113.69;;;7.77;99.86
71764;BME280;59602;52.142;5.408;2024-03-02T05:16:34;100116.00;;;7.79;99.59
71764;BME280;59602;52.142;5.408;2024-03-02T05:19:03;100113.28;;;7.79;100.00
71764;BME280;59602;52.142;5.408;2024-03-02T05:21:31;100115.25;;;7.82;100.00
71764;BME280;59602;52.142;5.408;2024-03-02T05:23:57;100121.81;;;7.81;99.68
71764;BME280;59602;52.142;5.408;2024-03-02T05:26:24;100115.59;;;7.77;98.42
71764;BME280;59602;52.142;5.408;2024-03-02T05:28:51;100120.59;;;7.75;98.39
71764;BME280;59602;52.142;5.408;2024-03-02T05:31:18;100116.38;;;7.77;97.99
71764;BME280;59602;52.142;5.408;2024-03-02T05:33:44;100125.28;;;7.78;97.51
71764;BME280;59602;52.142;5.408;2024-03-02T05:36:11;100119.09;;;7.77;97.74
71764;BME280;59602;52.142;5.408;2024-03-02T05:38:38;100121.78;;;7.74;97.21
71764;BME280;59602;52.142;5.408;2024-03-02T05:41:04;100119.06;;;7.74;96.33
71764;BME280;59602;52.142;5.408;2024-03-02T05:43:31;100115.19;;;7.71;96.54
71764;BME280;59602;52.142;5.408;2024-03-02T05:45:57;100118.25;;;7.69;95.03
71764;BME280;59602;52.142;5.408;2024-03-02T05:48:24;100110.13;;;7.66;95.51
71764;BME280;59602;52.142;5.408;2024-03-02T05:50:51;100117.41;;;7.58;96.23
71764;BME280;59602;52.142;5.408;2024-03-02T05:53:19;100114.72;;;7.55;96.16
71764;BME280;59602;52.142;5.408;2024-03-02T05:55:47;100128.19;;;7.51;96.13
71764;BME280;59602;52.142;5.408;2024-03-02T05:58:22;100126.59;;;7.43;96.10
71764;BME280;59602;52.142;5.408;2024-03-02T06:01:09;100128.50;;;7.42;95.79
71764;BME280;59602;52.142;5.408;2024-03-02T06:03:36;100132.75;;;7.40;95.93
71764;BME280;59602;52.142;5.408;2024-03-02T06:06:03;100125.41;;;7.40;95.39
71764;BME280;59602;52.142;5.408;2024-03-02T06:08:31;100133.97;;;7.46;94.46
71764;BME280;59602;52.142;5.408;2024-03-02T06:10:58;100140.16;;;7.50;94.43
71764;BME280;59602;52.142;5.408;2024-03-02T06:13:26;100146.72;;;7.49;93.69
71764;BME280;59602;52.142;5.408;2024-03-02T06:15:52;100150.59;;;7.52;93.94
71764;BME280;59602;52.142;5.408;2024-03-02T06:18:19;100140.53;;;7.48;94.42
71764;BME280;59602;52.142;5.408;2024-03-02T06:20:46;100146.34;;;7.51;95.04
71764;BME280;59602;52.142;5.408;2024-03-02T06:23:12;100156.78;;;7.52;94.92
71764;BME280;59602;52.142;5.408;2024-03-02T06:25:39;100158.31;;;7.49;95.82
71764;BME280;59602;52.142;5.408;2024-03-02T06:28:07;100161.44;;;7.52;95.30
71764;BME280;59602;52.142;5.408;2024-03-02T06:30:33;100164.94;;;7.56;96.60
71764;BME280;59602;52.142;5.408;2024-03-02T06:33:01;100168.81;;;7.58;95.84
71764;BME280;59602;52.142;5.408;2024-03-02T06:35:27;100165.34;;;7.58;95.17
71764;BME280;59602;52.142;5.408;2024-03-02T06:37:54;100168.44;;;7.60;96.47
71764;BME280;59602;52.142;5.408;2024-03-02T06:40:22;100176.19;;;7.61;97.02
71764;BME280;59602;52.142;5.408;2024-03-02T06:42:48;100173.88;;;7.63;95.89
71764;BME280;59602;52.142;5.408;2024-03-02T06:45:15;100177.38;;;7.64;97.74
71764;BME280;59602;52.142;5.408;2024-03-02T06:47:43;100175.44;;;7.64;97.07
71764;BME280;59602;52.142;5.408;2024-03-02T06:50:11;100176.97;;;7.65;95.89
71764;BME280;59602;52.142;5.408;2024-03-02T06:52:37;100173.50;;;7.65;97.10
71764;BME280;59602;52.142;5.408;2024-03-02T06:55:05;100176.97;;;7.65;96.31
71764;BME280;59602;52.142;5.408;2024-03-02T06:57:32;100174.31;;;7.69;95.71
71764;BME280;59602;52.142;5.408;2024-03-02T06:59:59;100171.19;;;7.67;94.88
71764;BME280;59602;52.142;5.408;2024-03-02T07:02:26;100171.97;;;7.67;95.03
71764;BME280;59602;52.142;5.408;2024-03-02T07:04:53;100173.94;;;7.71;94.09
71764;BME280;59602;52.142;5.408;2024-03-02T07:07:20;100177.00;;;7.69;94.42
71764;BME280;59602;52.142;5.408;2024-03-02T07:09:47;100176.66;;;7.71;94.89
71764;BME280;59602;52.142;5.408;2024-03-02T07:12:14;100180.91;;;7.72;94.58
71764;BME280;59602;52.142;5.408;2024-03-02T07:14:41;100174.34;;;7.73;95.12
71764;BME280;59602;52.142;5.408;2024-03-02T07:17:34;100174.75;;;7.78;95.12
71764;BME280;59602;52.142;5.408;2024-03-02T07:20:02;100177.91;;;7.84;94.56
71764;BME280;59602;52.142;5.408;2024-03-02T07:22:30;100167.47;;;7.86;95.01
71764;BME280;59602;52.142;5.408;2024-03-02T07:24:56;100174.06;;;7.88;93.76
71764;BME280;59602;52.142;5.408;2024-03-02T07:27:24;100177.94;;;7.91;92.84
71764;BME280;59602;52.142;5.408;2024-03-02T07:29:50;100181.81;;;7.94;93.64
71764;BME280;59602;52.142;5.408;2024-03-02T07:32:17;100186.47;;;7.97;92.93
71764;BME280;59602;52.142;5.408;2024-03-02T07:34:43;100190.38;;;8.03;92.53
71764;BME280;59602;52.142;5.408;2024-03-02T07:37:10;100191.59;;;8.09;93.00
71764;BME280;59602;52.142;5.408;2024-03-02T07:39:37;100192.34;;;8.09;92.51
71764;BME280;59602;52.142;5.408;2024-03-02T07:42:06;100191.97;;;8.15;92.41
71764;BME280;59602;52.142;5.408;2024-03-02T07:44:34;100196.25;;;8.16;92.12
71764;BME280;59602;52.142;5.408;2024-03-02T07:47:01;100198.97;;;8.19;91.65
71764;BME280;59602;52.142;5.408;2024-03-02T07:49:29;100204.41;;;8.23;92.04
71764;BME280;59602;52.142;5.408;2024-03-02T07:51:57;100200.13;;;8.18;92.04
71764;BME280;59602;52.142;5.408;2024-03-02T07:54:23;100209.81;;;8.16;92.30
71764;BME280;59602;52.142;5.408;2024-03-02T07:56:50;100209.00;;;8.11;93.19
71764;BME280;59602;52.142;5.408;2024-03-02T07:59:18;100209.00;;;8.11;92.71
71764;BME280;59602;52.142;5.408;2024-03-02T08:01:46;100206.31;;;8.15;93.43
71764;BME280;59602;52.142;5.408;2024-03-02T08:04:14;100217.88;;;8.08;92.09
71764;BME280;59602;52.142;5.408;2024-03-02T08:06:41;100215.50;;;8.03;93.06
71764;BME280;59602;52.142;5.408;2024-03-02T08:09:07;100209.31;;;7.99;92.28
71764;BME280;59602;52.142;5.408;2024-03-02T08:11:40;100224.81;;;8.02;93.23
71764;BME280;59602;52.142;5.408;2024-03-02T08:14:08;100226.75;;;8.02;93.29
71764;BME280;59602;52.142;5.408;2024-03-02T08:16:35;100228.66;;;8.01;93.79
71764;BME280;59602;52.142;5.408;2024-03-02T08:19:03;100229.44;;;8.02;93.15
71764;BME280;59602;52.142;5.408;2024-03-02T08:21:30;100228.63;;;7.98;91.98
71764;BME280;59602;52.142;5.408;2024-03-02T08:23:58;100226.34;;;8.00;92.56
71764;BME280;59602;52.142;5.408;2024-03-02T08:26:25;100225.16;;;7.97;91.82
71764;BME280;59602;52.142;5.408;2024-03-02T08:28:51;100223.22;;;7.98;92.88
71764;BME280;59602;52.142;5.408;2024-03-02T08:31:18;100230.63;;;8.08;92.75
71764;BME280;59602;52.142;5.408;2024-03-02T08:33:46;100232.63;;;8.18;91.18
71764;BME280;59602;52.142;5.408;2024-03-02T08:36:14;100224.56;;;8.29;91.68
71764;BME280;59602;52.142;5.408;2024-03-02T08:38:43;100220.72;;;8.37;92.80
71764;BME280;59602;52.142;5.408;2024-03-02T08:41:10;100228.53;;;8.46;91.59
71764;BME280;59602;52.142;5.408;2024-03-02T08:43:43;100223.59;;;8.55;91.64
71764;BME280;59602;52.142;5.408;2024-03-02T08:46:10;100222.44;;;8.60;92.22
71764;BME280;59602;52.142;5.408;2024-03-02T08:48:39;100231.75;;;8.62;91.19
71764;BME280;59602;52.142;5.408;2024-03-02T08:51:06;100239.47;;;8.64;90.88
71764;BME280;59602;52.142;5.408;2024-03-02T08:53:35;100226.72;;;8.68;91.87
71764;BME280;59602;52.142;5.408;2024-03-02T08:56:01;100224.78;;;8.72;90.45
71764;BME280;59602;52.142;5.408;2024-03-02T08:58:28;100222.84;;;8.69;88.92
71764;BME280;59602;52.142;5.408;2024-03-02T09:00:55;100222.09;;;8.72;89.60
71764;BME280;59602;52.142;5.408;2024-03-02T09:03:23;100223.28;;;8.78;90.77
71764;BME280;59602;52.142;5.408;2024-03-02T09:05:50;100226.38;;;8.84;89.41
71764;BME280;59602;52.142;5.408;2024-03-02T09:08:16;100224.09;;;8.89;89.37
71764;BME280;59602;52.142;5.408;2024-03-02T09:10:43;100231.06;;;8.94;89.00
71764;BME280;59602;52.142;5.408;2024-03-02T09:13:10;100235.75;;;9.01;87.03
71764;BME280;59602;52.142;5.408;2024-03-02T09:15:38;100230.31;;;9.08;88.30
71764;BME280;59602;52.142;5.408;2024-03-02T09:18:07;100219.13;;;9.17;87.79
71764;BME280;59602;52.142;5.408;2024-03-02T09:20:34;100225.72;;;9.23;87.72
71764;BME280;59602;52.142;5.408;2024-03-02T09:23:01;100228.81;;;9.25;85.08
71764;BME280;59602;52.142;5.408;2024-03-02T09:25:29;100224.16;;;9.25;85.61
71764;BME280;59602;52.142;5.408;2024-03-02T09:27:56;100235.03;;;9.29;85.70
71764;BME280;59602;52.142;5.408;2024-03-02T09:30:24;100222.63;;;9.35;84.88
71764;BME280;59602;52.142;5.408;2024-03-02T09:32:51;100231.94;;;9.34;81.98
71764;BME280;59602;52.142;5.408;2024-03-02T09:35:42;100236.56;;;9.37;83.27
71764;BME280;59602;52.142;5.408;2024-03-02T09:38:11;100235.03;;;9.43;84.30
71764;BME280;59602;52.142;5.408;2024-03-02T09:40:37;100234.66;;;9.48;81.42
71764;BME280;59602;52.142;5.408;2024-03-02T09:43:04;100244.75;;;9.51;82.83
71764;BME280;59602;52.142;5.408;2024-03-02T09:45:31;100242.03;;;9.59;81.89
71764;BME280;59602;52.142;5.408;2024-03-02T09:47:59;100247.06;;;9.64;80.22
71764;BME280;59602;52.142;5.408;2024-03-02T09:50:26;100239.31;;;9.69;80.23
71764;BME280;59602;52.142;5.408;2024-03-02T09:52:54;100240.47;;;9.68;77.63
71764;BME280;59602;52.142;5.408;2024-03-02T09:55:21;100250.56;;;9.71;78.58
71764;BME280;59602;52.142;5.408;2024-03-02T09:57:47;100240.09;;;9.73;78.28
71764;BME280;59602;52.142;5.408;2024-03-02T10:00:15;100235.03;;;9.75;78.02
71764;BME280;59602;52.142;5.408;2024-03-02T10:02:42;100237.38;;;9.81;78.79
71764;BME280;59602;52.142;5.408;2024-03-02T10:05:09;100241.25;;;9.80;76.65
71764;BME280;59602;52.142;5.408;2024-03-02T10:07:36;100243.97;;;9.87;78.34
71764;BME280;59602;52.142;5.408;2024-03-02T10:10:15;100243.97;;;9.94;78.54
71764;BME280;59602;52.142;5.408;2024-03-02T10:12:42;100238.53;;;10.01;77.75
71764;BME280;59602;52.142;5.408;2024-03-02T10:15:09;100243.97;;;10.01;77.27
71764;BME280;59602;52.142;5.408;2024-03-02T10:17:37;100238.53;;;10.01;77.74
71764;BME280;59602;52.142;5.408;2024-03-02T10:20:22;100240.84;;;10.06;78.82
71764;BME280;59602;52.142;5.408;2024-03-02T10:22:50;100242.78;;;10.13;77.33
71764;BME280;59602;52.142;5.408;2024-03-02T10:25:28;100229.56;;;10.15;76.69
71764;BME280;59602;52.142;5.408;2024-03-02T10:28:09;100233.81;;;10.19;76.36
71764;BME280;59602;52.142;5.408;2024-03-02T10:30:36;100238.50;;;10.23;72.68
71764;BME280;59602;52.142;5.408;2024-03-02T10:33:03;100241.56;;;10.28;76.40
71764;BME280;59602;52.142;5.408;2024-03-02T10:35:30;100248.16;;;10.42;77.37
71764;BME280;59602;52.142;5.408;2024-03-02T10:37:59;100228.34;;;10.48;75.24
71764;BME280;59602;52.142;5.408;2024-03-02T10:40:26;100234.16;;;10.50;78.22
71764;BME280;59602;52.142;5.408;2024-03-02T10:42:55;100236.09;;;10.53;74.30
71764;BME280;59602;52.142;5.408;2024-03-02T10:45:22;100223.31;;;10.50;73.72
71764;BME280;59602;52.142;5.408;2024-03-02T10:47:50;100227.16;;;10.53;77.12
71764;BME280;59602;52.142;5.408;2024-03-02T10:50:18;100212.03;;;10.52;73.60
71764;BME280;59602;52.142;5.408;2024-03-02T10:52:45;100223.69;;;10.52;74.26
71764;BME280;59602;52.142;5.408;2024-03-02T10:55:13;100224.03;;;10.58;73.78
71764;BME280;59602;52.142;5.408;2024-03-02T10:57:45;100209.63;;;10.65;73.83
71764;BME280;59602;52.142;5.408;2024-03-02T11:00:18;100203.00;;;10.76;75.95
71764;BME280;59602;52.142;5.408;2024-03-02T11:02:52;100199.09;;;10.81;74.00
71764;BME280;59602;52.142;5.408;2024-03-02T11:05:27;100197.53;;;10.80;72.71
71764;BME280;59602;52.142;5.408;2024-03-02T11:08:06;100196.72;;;10.90;77.12
71764;BME280;59602;52.142;5.408;2024-03-02T11:10:35;100200.56;;;10.96;73.08
71764;BME280;59602;52.142;5.408;2024-03-02T11:13:09;100203.25;;;11.00;72.23
71764;BME280;59602;52.142;5.408;2024-03-02T11:15:35;100205.97;;;11.00;70.17
71764;BME280;59602;52.142;5.408;2024-03-02T11:18:04;100208.69;;;11.00;69.61
71764;BME280;59602;52.142;5.408;2024-03-02T11:20:37;100216.06;;;11.03;69.36
71764;BME280;59602;52.142;5.408;2024-03-02T11:23:08;100205.13;;;11.10;70.48
71764;BME280;59602;52.142;5.408;2024-03-02T11:25:35;100212.06;;;11.18;68.99
71764;BME280;59602;52.142;5.408;2024-03-02T11:28:05;100216.34;;;11.23;70.77
71764;BME280;59602;52.142;5.408;2024-03-02T11:33:03;100208.13;;;11.27;68.27
71764;BME280;59602;52.142;5.408;2024-03-02T11:35:52;100207.75;;;11.28;69.17
71764;BME280;59602;52.142;5.408;2024-03-02T11:38:19;100205.41;;;11.27;66.33
71764;BME280;59602;52.142;5.408;2024-03-02T11:40:45;100204.22;;;11.31;66.94
71764;BME280;59602;52.142;5.408;2024-03-02T11:43:12;100192.16;;;11.32;67.47
71764;BME280;59602;52.142;5.408;2024-03-02T11:45:42;100189.00;;;11.41;67.75
71764;BME280;59602;52.142;5.408;2024-03-02T11:48:14;100188.56;;;11.46;68.28
71764;BME280;59602;52.142;5.408;2024-03-02T11:50:47;100192.41;;;11.52;67.66
71764;BME280;59602;52.142;5.408;2024-03-02T11:53:15;100184.63;;;11.54;67.13
71764;BME280;59602;52.142;5.408;2024-03-02T11:55:42;100184.28;;;11.45;65.01
71764;BME280;59602;52.142;5.408;2024-03-02T11:58:16;100181.16;;;11.47;69.43
71764;BME280;59602;52.142;5.408;2024-03-02T12:00:44;100184.63;;;11.51;65.57
71764;BME280;59602;52.142;5.408;2024-03-02T12:03:13;100178.44;;;11.47;64.01
71764;BME280;59602;52.142;5.408;2024-03-02T12:05:42;100173.38;;;11.49;64.11
71764;BME280;59602;52.142;5.408;2024-03-02T12:08:11;100174.88;;;11.53;63.47
71764;BME280;59602;52.142;5.408;2024-03-02T12:10:39;100172.91;;;11.57;63.70
71764;BME280;59602;52.142;5.408;2024-03-02T12:13:07;100169.41;;;11.57;62.09
71764;BME280;59602;52.142;5.408;2024-03-02T12:15:37;100166.31;;;11.55;62.74
71764;BME280;59602;52.142;5.408;2024-03-02T12:18:04;100159.28;;;11.57;63.23
71764;BME280;59602;52.142;5.408;2024-03-02T12:20:32;100160.44;;;11.56;60.97
71764;BME280;59602;52.142;5.408;2024-03-02T12:23:01;100159.31;;;11.54;62.52
71764;BME280;59602;52.142;5.408;2024-03-02T12:25:30;100152.72;;;11.55;62.06
71764;BME280;59602;52.142;5.408;2024-03-02T12:27:59;100160.91;;;11.51;62.87
71764;BME280;59602;52.142;5.408;2024-03-02T12:30:30;100141.81;;;11.55;64.67
71764;BME280;59602;52.142;5.408;2024-03-02T12:32:59;100148.69;;;11.67;66.10
71764;BME280;59602;52.142;5.408;2024-03-02T12:35:27;100147.50;;;11.71;64.38
71764;BME280;59602;52.142;5.408;2024-03-02T12:37:55;100152.47;;;11.80;64.31
71764;BME280;59602;52.142;5.408;2024-03-02T12:40:22;100148.97;;;11.79;64.89
71764;BME280;59602;52.142;5.408;2024-03-02T12:42:59;100147.78;;;11.80;65.80
71764;BME280;59602;52.142;5.408;2024-03-02T12:45:25;100147.34;;;11.86;67.69
71764;BME280;59602;52.142;5.408;2024-03-02T12:47:54;100134.13;;;11.88;63.81
71764;BME280;59602;52.142;5.408;2024-03-02T12:50:21;100129.06;;;11.86;66.09
71764;BME280;59602;52.142;5.408;2024-03-02T12:52:53;100125.97;;;11.84;67.20
71764;BME280;59602;52.142;5.408;2024-03-02T12:55:23;100124.38;;;11.87;67.46
71764;BME280;59602;52.142;5.408;2024-03-02T12:57:51;100118.94;;;11.87;67.63
71764;BME280;59602;52.142;5.408;2024-03-02T13:00:19;100119.31;;;11.89;70.33
71764;BME280;59602;52.142;5.408;2024-03-02T13:02:50;100109.97;;;11.90;65.64
71764;BME280;59602;52.142;5.408;2024-03-02T13:05:18;100119.31;;;11.89;68.37
71764;BME280;59602;52.142;5.408;2024-03-02T13:07:47;100120.47;;;11.91;65.79